sensor_id;sensor_type;location;lat;lon;timestamp;P1;durP1;ratioP1;P2;durP2;ratioP2
21729;SDS011;11027;51.030;13.812;2023-01-16T00:02:05;2.72;;;1.50;;
21729;SDS011;11027;51.030;13.812;2023-01-16T00:04:30;2.28;;;0.88;;
21729;SDS011;11027;51.030;13.812;2023-01-16T00:06:55;2.95;;;1.10;;
21729;SDS011;11027;51.030;13.812;2023-01-16T00:09:21;2.20;;;1.20;;
21729;SDS011;11027;51.030;13.812;2023-01-16T00:11:46;2.85;;;1.33;;
21729;SDS011;11027;51.030;13.812;2023-01-16T00:14:11;4.00;;;1.52;;
21729;SDS011;11027;51.030;13.812;2023-01-16T00:16:37;3.60;;;1.48;;
21729;SDS011;11027;51.030;13.812;2023-01-16T00:19:02;7.07;;;1.55;;
21729;SDS011;11027;51.030;13.812;2023-01-16T00:21:28;2.83;;;1.00;;
21729;SDS011;11027;51.030;13.812;2023-01-16T00:23:54;2.40;;;1.00;;
21729;SDS011;11027;51.030;13.812;2023-01-16T00:26:20;3.25;;;1.02;;
21729;SDS011;11027;51.030;13.812;2023-01-16T00:28:46;2.47;;;1.08;;
21729;SDS011;11027;51.030;13.812;2023-01-16T00:31:11;4.13;;;1.23;;
21729;SDS011;11027;51.030;13.812;2023-01-16T00:33:37;4.15;;;1.52;;
21729;SDS011;11027;51.030;13.812;2023-01-16T00:36:02;5.13;;;1.30;;
21729;SDS011;11027;51.030;13.812;2023-01-16T00:38:28;3.38;;;1.50;;
21729;SDS011;11027;51.030;13.812;2023-01-16T00:40:53;5.97;;;1.23;;
21729;SDS011;11027;51.030;13.812;2023-01-16T00:43:18;3.88;;;1.83;;
21729;SDS011;11027;51.030;13.812;2023-01-16T00:45:44;4.43;;;1.30;;
21729;SDS011;11027;51.030;13.812;2023-01-16T00:48:10;3.65;;;1.27;;
21729;SDS011;11027;51.030;13.812;2023-01-16T00:50:35;3.67;;;1.10;;
21729;SDS011;11027;51.030;13.812;2023-01-16T00:53:00;4.38;;;1.23;;
21729;SDS011;11027;51.030;13.812;2023-01-16T00:55:26;3.20;;;1.30;;
21729;SDS011;11027;51.030;13.812;2023-01-16T00:57:51;4.13;;;1.15;;
21729;SDS011;11027;51.030;13.812;2023-01-16T01:00:17;5.68;;;1.50;;
21729;SDS011;11027;51.030;13.812;2023-01-16T01:02:46;1.23;;;1.05;;
21729;SDS011;11027;51.030;13.812;2023-01-16T01:05:11;2.75;;;1.50;;
21729;SDS011;11027;51.030;13.812;2023-01-16T01:07:37;4.75;;;1.30;;
21729;SDS011;11027;51.030;13.812;2023-01-16T01:10:02;1.92;;;1.23;;
21729;SDS011;11027;51.030;13.812;2023-01-16T01:12:28;2.92;;;1.33;;
21729;SDS011;11027;51.030;13.812;2023-01-16T01:14:53;3.60;;;1.58;;
21729;SDS011;11027;51.030;13.812;2023-01-16T01:17:19;5.47;;;2.10;;
21729;SDS011;11027;51.030;13.812;2023-01-16T01:19:44;3.33;;;1.58;;
21729;SDS011;11027;51.030;13.812;2023-01-16T01:22:09;2.78;;;1.60;;
21729;SDS011;11027;51.030;13.812;2023-01-16T01:24:35;4.57;;;1.83;;
21729;SDS011;11027;51.030;13.812;2023-01-16T01:27:00;5.32;;;1.90;;
21729;SDS011;11027;51.030;13.812;2023-01-16T01:29:25;3.88;;;2.08;;
21729;SDS011;11027;51.030;13.812;2023-01-16T01:31:51;2.50;;;1.90;;
21729;SDS011;11027;51.030;13.812;2023-01-16T01:34:16;4.60;;;2.22;;
21729;SDS011;11027;51.030;13.812;2023-01-16T01:36:41;2.45;;;1.95;;
21729;SDS011;11027;51.030;13.812;2023-01-16T01:39:07;4.45;;;2.25;;
21729;SDS011;11027;51.030;13.812;2023-01-16T01:41:32;4.97;;;2.00;;
21729;SDS011;11027;51.030;13.812;2023-01-16T01:43:57;6.25;;;1.83;;
21729;SDS011;11027;51.030;13.812;2023-01-16T01:46:40;5.90;;;1.95;;
21729;SDS011;11027;51.030;13.812;2023-01-16T01:49:10;4.88;;;1.70;;
21729;SDS011;11027;51.030;13.812;2023-01-16T01:51:46;3.53;;;1.75;;
21729;SDS011;11027;51.030;13.812;2023-01-16T01:54:13;5.60;;;2.13;;
21729;SDS011;11027;51.030;13.812;2023-01-16T01:56:43;5.83;;;1.60;;
21729;SDS011;11027;51.030;13.812;2023-01-16T01:59:20;2.97;;;1.60;;
21729;SDS011;11027;51.030;13.812;2023-01-16T02:01:52;5.85;;;1.63;;
21729;SDS011;11027;51.030;13.812;2023-01-16T02:04:19;3.28;;;1.25;;
21729;SDS011;11027;51.030;13.812;2023-01-16T02:06:50;3.70;;;1.50;;
21729;SDS011;11027;51.030;13.812;2023-01-16T02:09:17;3.20;;;1.60;;
21729;SDS011;11027;51.030;13.812;2023-01-16T02:11:53;4.18;;;1.70;;
21729;SDS011;11027;51.030;13.812;2023-01-16T02:14:21;2.88;;;1.88;;
21729;SDS011;11027;51.030;13.812;2023-01-16T02:16:51;5.95;;;1.70;;
21729;SDS011;11027;51.030;13.812;2023-01-16T02:23:06;3.47;;;1.50;;
21729;SDS011;11027;51.030;13.812;2023-01-16T02:31:34;4.40;;;1.73;;
21729;SDS011;11027;51.030;13.812;2023-01-16T02:42:28;3.42;;;1.80;;
21729;SDS011;11027;51.030;13.812;2023-01-16T02:45:02;3.55;;;2.00;;
21729;SDS011;11027;51.030;13.812;2023-01-16T02:53:03;3.55;;;2.35;;
21729;SDS011;11027;51.030;13.812;2023-01-16T02:55:42;3.55;;;2.22;;
21729;SDS011;11027;51.030;13.812;2023-01-16T02:58:22;2.97;;;2.33;;
21729;SDS011;11027;51.030;13.812;2023-01-16T03:00:52;2.78;;;2.45;;
21729;SDS011;11027;51.030;13.812;2023-01-16T03:03:34;4.35;;;2.40;;
21729;SDS011;11027;51.030;13.812;2023-01-16T03:06:49;5.87;;;2.40;;
21729;SDS011;11027;51.030;13.812;2023-01-16T03:09:02;3.47;;;2.30;;
21729;SDS011;11027;51.030;13.812;2023-01-16T03:11:37;3.67;;;2.20;;
21729;SDS011;11027;51.030;13.812;2023-01-16T03:14:20;5.28;;;2.00;;
21729;SDS011;11027;51.030;13.812;2023-01-16T03:20:23;6.03;;;2.10;;
21729;SDS011;11027;51.030;13.812;2023-01-16T03:23:06;2.53;;;1.90;;
21729;SDS011;11027;51.030;13.812;2023-01-16T03:28:13;8.73;;;2.10;;
21729;SDS011;11027;51.030;13.812;2023-01-16T03:33:58;4.18;;;1.98;;
21729;SDS011;11027;51.030;13.812;2023-01-16T03:36:53;3.22;;;1.55;;
21729;SDS011;11027;51.030;13.812;2023-01-16T03:39:23;3.10;;;1.90;;
21729;SDS011;11027;51.030;13.812;2023-01-16T03:41:52;3.20;;;1.73;;
21729;SDS011;11027;51.030;13.812;2023-01-16T03:44:21;5.10;;;1.90;;
21729;SDS011;11027;51.030;13.812;2023-01-16T03:46:54;5.03;;;2.00;;
21729;SDS011;11027;51.030;13.812;2023-01-16T03:49:24;5.03;;;2.10;;
21729;SDS011;11027;51.030;13.812;2023-01-16T03:51:57;4.88;;;1.90;;
21729;SDS011;11027;51.030;13.812;2023-01-16T03:54:31;4.88;;;2.10;;
21729;SDS011;11027;51.030;13.812;2023-01-16T03:59:44;2.67;;;1.83;;
21729;SDS011;11027;51.030;13.812;2023-01-16T04:02:12;6.05;;;2.20;;
21729;SDS011;11027;51.030;13.812;2023-01-16T04:10:06;5.13;;;2.10;;
21729;SDS011;11027;51.030;13.812;2023-01-16T04:12:35;4.65;;;1.98;;
21729;SDS011;11027;51.030;13.812;2023-01-16T04:15:06;4.30;;;1.70;;
21729;SDS011;11027;51.030;13.812;2023-01-16T04:17:36;4.70;;;1.80;;
21729;SDS011;11027;51.030;13.812;2023-01-16T04:20:03;4.50;;;1.63;;
21729;SDS011;11027;51.030;13.812;2023-01-16T04:22:30;2.85;;;1.50;;
21729;SDS011;11027;51.030;13.812;2023-01-16T04:24:57;2.72;;;1.45;;
21729;SDS011;11027;51.030;13.812;2023-01-16T04:27:24;8.80;;;1.70;;
21729;SDS011;11027;51.030;13.812;2023-01-16T04:29:49;2.38;;;1.10;;
21729;SDS011;11027;51.030;13.812;2023-01-16T04:32:15;4.78;;;1.30;;
21729;SDS011;11027;51.030;13.812;2023-01-16T04:34:40;2.67;;;1.30;;
21729;SDS011;11027;51.030;13.812;2023-01-16T04:37:06;1.92;;;1.10;;
21729;SDS011;11027;51.030;13.812;2023-01-16T04:39:31;3.25;;;1.63;;
21729;SDS011;11027;51.030;13.812;2023-01-16T04:41:57;3.80;;;1.60;;
21729;SDS011;11027;51.030;13.812;2023-01-16T04:44:23;3.58;;;1.35;;
21729;SDS011;11027;51.030;13.812;2023-01-16T04:46:49;4.95;;;1.83;;
21729;SDS011;11027;51.030;13.812;2023-01-16T04:49:14;3.60;;;1.50;;
21729;SDS011;11027;51.030;13.812;2023-01-16T04:51:39;6.40;;;1.67;;
21729;SDS011;11027;51.030;13.812;2023-01-16T04:54:05;2.20;;;1.65;;
21729;SDS011;11027;51.030;13.812;2023-01-16T04:56:31;2.08;;;1.60;;
21729;SDS011;11027;51.030;13.812;2023-01-16T04:58:57;2.95;;;1.58;;
21729;SDS011;11027;51.030;13.812;2023-01-16T05:01:23;2.83;;;1.60;;
21729;SDS011;11027;51.030;13.812;2023-01-16T05:03:48;3.20;;;1.92;;
21729;SDS011;11027;51.030;13.812;2023-01-16T05:06:14;4.82;;;1.90;;
21729;SDS011;11027;51.030;13.812;2023-01-16T05:08:39;3.90;;;2.13;;
21729;SDS011;11027;51.030;13.812;2023-01-16T05:11:05;2.90;;;1.67;;
21729;SDS011;11027;51.030;13.812;2023-01-16T05:13:30;4.25;;;1.67;;
21729;SDS011;11027;51.030;13.812;2023-01-16T05:15:55;7.97;;;2.33;;
21729;SDS011;11027;51.030;13.812;2023-01-16T05:18:21;3.63;;;2.08;;
21729;SDS011;11027;51.030;13.812;2023-01-16T05:20:47;4.43;;;2.38;;
21729;SDS011;11027;51.030;13.812;2023-01-16T05:23:13;2.95;;;2.53;;
21729;SDS011;11027;51.030;13.812;2023-01-16T05:25:38;3.22;;;2.53;;
21729;SDS011;11027;51.030;13.812;2023-01-16T05:28:04;4.22;;;2.05;;
21729;SDS011;11027;51.030;13.812;2023-01-16T05:30:30;4.32;;;2.30;;
21729;SDS011;11027;51.030;13.812;2023-01-16T05:32:56;5.45;;;2.20;;
21729;SDS011;11027;51.030;13.812;2023-01-16T05:35:21;4.78;;;2.40;;
21729;SDS011;11027;51.030;13.812;2023-01-16T05:37:46;3.05;;;2.15;;
21729;SDS011;11027;51.030;13.812;2023-01-16T05:40:12;4.65;;;1.90;;
21729;SDS011;11027;51.030;13.812;2023-01-16T05:42:38;3.08;;;1.98;;
21729;SDS011;11027;51.030;13.812;2023-01-16T05:45:03;2.63;;;1.65;;
21729;SDS011;11027;51.030;13.812;2023-01-16T05:47:29;3.70;;;2.10;;
21729;SDS011;11027;51.030;13.812;2023-01-16T05:49:55;3.38;;;1.60;;
21729;SDS011;11027;51.030;13.812;2023-01-16T05:52:26;2.25;;;1.30;;
21729;SDS011;11027;51.030;13.812;2023-01-16T05:54:52;3.28;;;1.60;;
21729;SDS011;11027;51.030;13.812;2023-01-16T05:57:18;3.08;;;1.23;;
21729;SDS011;11027;51.030;13.812;2023-01-16T05:59:43;3.45;;;1.25;;
21729;SDS011;11027;51.030;13.812;2023-01-16T06:02:11;6.38;;;1.40;;
21729;SDS011;11027;51.030;13.812;2023-01-16T06:04:37;2.95;;;1.40;;
21729;SDS011;11027;51.030;13.812;2023-01-16T06:07:02;3.72;;;1.20;;
21729;SDS011;11027;51.030;13.812;2023-01-16T06:09:28;2.65;;;1.30;;
21729;SDS011;11027;51.030;13.812;2023-01-16T06:11:53;2.47;;;1.00;;
21729;SDS011;11027;51.030;13.812;2023-01-16T06:14:19;3.78;;;2.17;;
21729;SDS011;11027;51.030;13.812;2023-01-16T06:16:50;5.00;;;1.73;;
21729;SDS011;11027;51.030;13.812;2023-01-16T06:19:15;1.67;;;1.15;;
21729;SDS011;11027;51.030;13.812;2023-01-16T06:21:40;5.22;;;1.30;;
21729;SDS011;11027;51.030;13.812;2023-01-16T06:24:06;1.92;;;1.20;;
21729;SDS011;11027;51.030;13.812;2023-01-16T06:26:31;4.20;;;1.20;;
21729;SDS011;11027;51.030;13.812;2023-01-16T06:28:56;4.78;;;1.75;;
21729;SDS011;11027;51.030;13.812;2023-01-16T06:31:22;6.10;;;1.40;;
21729;SDS011;11027;51.030;13.812;2023-01-16T06:33:48;2.58;;;1.10;;
21729;SDS011;11027;51.030;13.812;2023-01-16T06:36:13;2.72;;;1.23;;
21729;SDS011;11027;51.030;13.812;2023-01-16T06:38:39;2.65;;;1.20;;
21729;SDS011;11027;51.030;13.812;2023-01-16T06:41:04;2.97;;;0.82;;
21729;SDS011;11027;51.030;13.812;2023-01-16T06:43:29;8.95;;;1.27;;
21729;SDS011;11027;51.030;13.812;2023-01-16T06:45:55;3.33;;;1.00;;
21729;SDS011;11027;51.030;13.812;2023-01-16T06:48:21;4.57;;;1.23;;
21729;SDS011;11027;51.030;13.812;2023-01-16T06:50:46;2.22;;;1.17;;
21729;SDS011;11027;51.030;13.812;2023-01-16T06:53:12;5.95;;;1.00;;
21729;SDS011;11027;51.030;13.812;2023-01-16T06:55:38;2.05;;;0.85;;
21729;SDS011;11027;51.030;13.812;2023-01-16T06:58:05;6.53;;;1.20;;
21729;SDS011;11027;51.030;13.812;2023-01-16T07:00:31;2.90;;;1.10;;
21729;SDS011;11027;51.030;13.812;2023-01-16T07:02:57;4.50;;;1.38;;
21729;SDS011;11027;51.030;13.812;2023-01-16T07:05:23;3.08;;;1.30;;
21729;SDS011;11027;51.030;13.812;2023-01-16T07:07:50;3.00;;;1.30;;
21729;SDS011;11027;51.030;13.812;2023-01-16T07:10:15;7.43;;;1.02;;
21729;SDS011;11027;51.030;13.812;2023-01-16T07:12:42;6.50;;;1.10;;
21729;SDS011;11027;51.030;13.812;2023-01-16T07:15:09;1.92;;;1.10;;
21729;SDS011;11027;51.030;13.812;2023-01-16T07:17:53;3.42;;;1.50;;
21729;SDS011;11027;51.030;13.812;2023-01-16T07:20:37;2.85;;;1.20;;
21729;SDS011;11027;51.030;13.812;2023-01-16T07:23:22;5.25;;;1.20;;
21729;SDS011;11027;51.030;13.812;2023-01-16T07:25:51;2.08;;;1.02;;
21729;SDS011;11027;51.030;13.812;2023-01-16T07:28:18;3.53;;;1.17;;
21729;SDS011;11027;51.030;13.812;2023-01-16T07:30:44;3.00;;;1.00;;
21729;SDS011;11027;51.030;13.812;2023-01-16T07:33:11;2.83;;;1.23;;
21729;SDS011;11027;51.030;13.812;2023-01-16T07:35:37;2.78;;;1.05;;
21729;SDS011;11027;51.030;13.812;2023-01-16T07:38:03;4.50;;;1.30;;
21729;SDS011;11027;51.030;13.812;2023-01-16T07:40:28;3.17;;;1.20;;
21729;SDS011;11027;51.030;13.812;2023-01-16T07:42:54;3.28;;;1.10;;
21729;SDS011;11027;51.030;13.812;2023-01-16T07:45:19;3.38;;;1.13;;
21729;SDS011;11027;51.030;13.812;2023-01-16T07:47:44;2.20;;;1.30;;
21729;SDS011;11027;51.030;13.812;2023-01-16T07:50:10;4.15;;;1.40;;
21729;SDS011;11027;51.030;13.812;2023-01-16T07:52:35;3.30;;;1.50;;
21729;SDS011;11027;51.030;13.812;2023-01-16T07:55:01;5.55;;;1.58;;
21729;SDS011;11027;51.030;13.812;2023-01-16T07:57:26;3.75;;;1.45;;
21729;SDS011;11027;51.030;13.812;2023-01-16T07:59:52;4.78;;;2.00;;
21729;SDS011;11027;51.030;13.812;2023-01-16T08:02:18;2.13;;;1.30;;
21729;SDS011;11027;51.030;13.812;2023-01-16T08:04:43;4.55;;;1.30;;
21729;SDS011;11027;51.030;13.812;2023-01-16T08:07:08;5.35;;;1.48;;
21729;SDS011;11027;51.030;13.812;2023-01-16T08:09:34;4.60;;;1.70;;
21729;SDS011;11027;51.030;13.812;2023-01-16T08:11:59;3.08;;;1.48;;
21729;SDS011;11027;51.030;13.812;2023-01-16T08:14:25;2.47;;;1.38;;
21729;SDS011;11027;51.030;13.812;2023-01-16T08:16:50;2.45;;;1.33;;
21729;SDS011;11027;51.030;13.812;2023-01-16T08:19:15;4.85;;;1.90;;
21729;SDS011;11027;51.030;13.812;2023-01-16T08:21:41;3.30;;;1.25;;
21729;SDS011;11027;51.030;13.812;2023-01-16T08:24:06;5.28;;;2.00;;
21729;SDS011;11027;51.030;13.812;2023-01-16T08:26:32;2.92;;;1.38;;
21729;SDS011;11027;51.030;13.812;2023-01-16T08:28:57;4.05;;;1.58;;
21729;SDS011;11027;51.030;13.812;2023-01-16T08:31:24;2.40;;;1.42;;
21729;SDS011;11027;51.030;13.812;2023-01-16T08:33:50;5.28;;;1.50;;
21729;SDS011;11027;51.030;13.812;2023-01-16T08:36:15;3.05;;;1.58;;
21729;SDS011;11027;51.030;13.812;2023-01-16T08:38:41;3.97;;;1.42;;
21729;SDS011;11027;51.030;13.812;2023-01-16T08:41:10;2.53;;;1.38;;
21729;SDS011;11027;51.030;13.812;2023-01-16T08:43:54;5.38;;;1.30;;
21729;SDS011;11027;51.030;13.812;2023-01-16T08:46:39;4.85;;;1.30;;
21729;SDS011;11027;51.030;13.812;2023-01-16T08:49:23;5.57;;;1.42;;
21729;SDS011;11027;51.030;13.812;2023-01-16T08:52:08;2.15;;;1.13;;
21729;SDS011;11027;51.030;13.812;2023-01-16T08:54:33;2.88;;;1.25;;
21729;SDS011;11027;51.030;13.812;2023-01-16T08:56:59;1.95;;;1.10;;
21729;SDS011;11027;51.030;13.812;2023-01-16T08:59:24;4.30;;;1.30;;
21729;SDS011;11027;51.030;13.812;2023-01-16T09:01:49;4.95;;;1.35;;
21729;SDS011;11027;51.030;13.812;2023-01-16T09:04:15;3.05;;;1.38;;
21729;SDS011;11027;51.030;13.812;2023-01-16T09:06:40;7.28;;;2.60;;
21729;SDS011;11027;51.030;13.812;2023-01-16T09:09:06;6.82;;;1.48;;
21729;SDS011;11027;51.030;13.812;2023-01-16T09:11:32;3.55;;;1.50;;
21729;SDS011;11027;51.030;13.812;2023-01-16T09:14:17;5.35;;;1.23;;
21729;SDS011;11027;51.030;13.812;2023-01-16T09:16:43;2.20;;;0.80;;
21729;SDS011;11027;51.030;13.812;2023-01-16T09:19:08;4.30;;;0.90;;
21729;SDS011;11027;51.030;13.812;2023-01-16T09:21:34;2.35;;;0.90;;
21729;SDS011;11027;51.030;13.812;2023-01-16T09:23:59;2.78;;;1.20;;
21729;SDS011;11027;51.030;13.812;2023-01-16T09:26:25;2.90;;;1.17;;
21729;SDS011;11027;51.030;13.812;2023-01-16T09:28:50;9.13;;;2.78;;
21729;SDS011;11027;51.030;13.812;2023-01-16T09:31:15;3.15;;;1.15;;
21729;SDS011;11027;51.030;13.812;2023-01-16T09:33:41;1.65;;;0.90;;
21729;SDS011;11027;51.030;13.812;2023-01-16T09:36:06;1.80;;;0.98;;
21729;SDS011;11027;51.030;13.812;2023-01-16T09:38:32;1.27;;;0.68;;
21729;SDS011;11027;51.030;13.812;2023-01-16T09:40:58;3.05;;;1.27;;
21729;SDS011;11027;51.030;13.812;2023-01-16T09:48:38;4.50;;;1.25;;
21729;SDS011;11027;51.030;13.812;2023-01-16T09:51:13;2.10;;;1.15;;
21729;SDS011;11027;51.030;13.812;2023-01-16T09:53:54;4.20;;;1.42;;
21729;SDS011;11027;51.030;13.812;2023-01-16T09:56:51;6.60;;;1.70;;
21729;SDS011;11027;51.030;13.812;2023-01-16T09:59:41;4.70;;;1.33;;
21729;SDS011;11027;51.030;13.812;2023-01-16T10:02:28;3.47;;;1.17;;
21729;SDS011;11027;51.030;13.812;2023-01-16T10:04:57;4.15;;;0.90;;
21729;SDS011;11027;51.030;13.812;2023-01-16T10:07:43;4.90;;;1.10;;
21729;SDS011;11027;51.030;13.812;2023-01-16T10:10:23;2.97;;;1.30;;
21729;SDS011;11027;51.030;13.812;2023-01-16T10:16:27;3.25;;;0.90;;
21729;SDS011;11027;51.030;13.812;2023-01-16T10:24:47;1.83;;;0.90;;
21729;SDS011;11027;51.030;13.812;2023-01-16T10:31:08;3.58;;;1.73;;
21729;SDS011;11027;51.030;13.812;2023-01-16T10:33:40;4.07;;;0.90;;
21729;SDS011;11027;51.030;13.812;2023-01-16T10:36:12;3.58;;;1.08;;
21729;SDS011;11027;51.030;13.812;2023-01-16T10:38:43;3.47;;;0.77;;
21729;SDS011;11027;51.030;13.812;2023-01-16T10:41:54;1.92;;;0.70;;
21729;SDS011;11027;51.030;13.812;2023-01-16T10:44:27;2.13;;;0.80;;
21729;SDS011;11027;51.030;13.812;2023-01-16T10:47:15;4.47;;;1.00;;
21729;SDS011;11027;51.030;13.812;2023-01-16T10:49:59;3.50;;;1.90;;
21729;SDS011;11027;51.030;13.812;2023-01-16T10:52:25;3.30;;;1.45;;
21729;SDS011;11027;51.030;13.812;2023-01-16T10:54:52;4.13;;;1.40;;
21729;SDS011;11027;51.030;13.812;2023-01-16T10:57:23;1.95;;;1.17;;
21729;SDS011;11027;51.030;13.812;2023-01-16T10:59:52;5.50;;;1.30;;
21729;SDS011;11027;51.030;13.812;2023-01-16T11:02:28;4.30;;;1.55;;
21729;SDS011;11027;51.030;13.812;2023-01-16T11:04:56;3.63;;;1.35;;
21729;SDS011;11027;51.030;13.812;2023-01-16T11:07:22;5.82;;;1.92;;
21729;SDS011;11027;51.030;13.812;2023-01-16T11:09:51;5.30;;;1.60;;
21729;SDS011;11027;51.030;13.812;2023-01-16T11:12:23;4.70;;;1.50;;
21729;SDS011;11027;51.030;13.812;2023-01-16T11:15:15;4.38;;;1.15;;
21729;SDS011;11027;51.030;13.812;2023-01-16T11:18:02;6.03;;;1.55;;
21729;SDS011;11027;51.030;13.812;2023-01-16T11:20:46;4.30;;;1.17;;
21729;SDS011;11027;51.030;13.812;2023-01-16T11:23:16;3.10;;;1.20;;
21729;SDS011;11027;51.030;13.812;2023-01-16T11:25:44;3.00;;;1.20;;
21729;SDS011;11027;51.030;13.812;2023-01-16T11:28:13;5.45;;;1.27;;
21729;SDS011;11027;51.030;13.812;2023-01-16T11:30:44;2.53;;;0.90;;
21729;SDS011;11027;51.030;13.812;2023-01-16T11:33:15;4.50;;;1.13;;
21729;SDS011;11027;51.030;13.812;2023-01-16T11:35:47;5.90;;;1.15;;
21729;SDS011;11027;51.030;13.812;2023-01-16T11:38:18;4.53;;;1.20;;
21729;SDS011;11027;51.030;13.812;2023-01-16T11:40:44;2.72;;;0.90;;
21729;SDS011;11027;51.030;13.812;2023-01-16T11:43:13;2.58;;;1.00;;
21729;SDS011;11027;51.030;13.812;2023-01-16T11:45:58;4.45;;;1.10;;
21729;SDS011;11027;51.030;13.812;2023-01-16T11:48:40;7.57;;;1.00;;
21729;SDS011;11027;51.030;13.812;2023-01-16T11:51:17;3.25;;;1.10;;
21729;SDS011;11027;51.030;13.812;2023-01-16T11:53:45;3.78;;;1.30;;
21729;SDS011;11027;51.030;13.812;2023-01-16T11:56:23;9.63;;;1.50;;
21729;SDS011;11027;51.030;13.812;2023-01-16T12:04:41;3.75;;;1.13;;
21729;SDS011;11027;51.030;13.812;2023-01-16T12:07:35;5.70;;;1.45;;
21729;SDS011;11027;51.030;13.812;2023-01-16T12:13:05;1.75;;;0.93;;
21729;SDS011;11027;51.030;13.812;2023-01-16T12:21:56;3.33;;;1.60;;
21729;SDS011;11027;51.030;13.812;2023-01-16T12:27:32;6.05;;;1.20;;
21729;SDS011;11027;51.030;13.812;2023-01-16T12:30:18;4.47;;;1.65;;
21729;SDS011;11027;51.030;13.812;2023-01-16T12:32:52;3.75;;;1.77;;
21729;SDS011;11027;51.030;13.812;2023-01-16T12:35:45;4.55;;;1.48;;
21729;SDS011;11027;51.030;13.812;2023-01-16T12:38:19;3.83;;;1.58;;
21729;SDS011;11027;51.030;13.812;2023-01-16T12:41:20;8.70;;;1.95;;
21729;SDS011;11027;51.030;13.812;2023-01-16T12:44:27;3.22;;;1.55;;
21729;SDS011;11027;51.030;13.812;2023-01-16T12:54:41;4.88;;;1.35;;
21729;SDS011;11027;51.030;13.812;2023-01-16T12:57:41;4.25;;;1.30;;
21729;SDS011;11027;51.030;13.812;2023-01-16T13:00:16;3.67;;;1.52;;
21729;SDS011;11027;51.030;13.812;2023-01-16T13:05:33;5.22;;;1.48;;
21729;SDS011;11027;51.030;13.812;2023-01-16T13:10:42;3.13;;;1.30;;
21729;SDS011;11027;51.030;13.812;2023-01-16T13:13:31;6.70;;;1.20;;
21729;SDS011;11027;51.030;13.812;2023-01-16T13:16:03;3.25;;;1.33;;
21729;SDS011;11027;51.030;13.812;2023-01-16T13:18:38;5.13;;;1.50;;
21729;SDS011;11027;51.030;13.812;2023-01-16T13:21:17;3.35;;;1.60;;
21729;SDS011;11027;51.030;13.812;2023-01-16T13:24:04;3.78;;;1.40;;
21729;SDS011;11027;51.030;13.812;2023-01-16T13:26:37;3.45;;;1.38;;
21729;SDS011;11027;51.030;13.812;2023-01-16T13:29:09;5.05;;;1.42;;
21729;SDS011;11027;51.030;13.812;2023-01-16T13:31:40;3.65;;;1.40;;
21729;SDS011;11027;51.030;13.812;2023-01-16T13:42:31;9.50;;;1.27;;
21729;SDS011;11027;51.030;13.812;2023-01-16T13:45:03;6.13;;;1.48;;
21729;SDS011;11027;51.030;13.812;2023-01-16T13:47:51;4.13;;;1.33;;
21729;SDS011;11027;51.030;13.812;2023-01-16T13:50:23;4.80;;;1.50;;
21729;SDS011;11027;51.030;13.812;2023-01-16T13:52:53;3.38;;;1.42;;
21729;SDS011;11027;51.030;13.812;2023-01-16T13:55:27;3.13;;;1.30;;
21729;SDS011;11027;51.030;13.812;2023-01-16T13:57:56;2.03;;;1.13;;
21729;SDS011;11027;51.030;13.812;2023-01-16T14:01:03;2.90;;;1.05;;
21729;SDS011;11027;51.030;13.812;2023-01-16T14:03:33;8.93;;;1.40;;
21729;SDS011;11027;51.030;13.812;2023-01-16T14:08:50;6.90;;;1.80;;
21729;SDS011;11027;51.030;13.812;2023-01-16T14:17:25;5.63;;;1.50;;
21729;SDS011;11027;51.030;13.812;2023-01-16T14:19:58;5.80;;;1.48;;
21729;SDS011;11027;51.030;13.812;2023-01-16T14:22:40;4.80;;;1.55;;
21729;SDS011;11027;51.030;13.812;2023-01-16T14:25:25;4.07;;;1.20;;
21729;SDS011;11027;51.030;13.812;2023-01-16T14:27:53;3.55;;;1.33;;
21729;SDS011;11027;51.030;13.812;2023-01-16T14:30:22;3.28;;;1.30;;
21729;SDS011;11027;51.030;13.812;2023-01-16T14:32:52;3.08;;;1.60;;
21729;SDS011;11027;51.030;13.812;2023-01-16T14:35:22;3.75;;;1.48;;
21729;SDS011;11027;51.030;13.812;2023-01-16T14:37:55;2.42;;;1.40;;
21729;SDS011;11027;51.030;13.812;2023-01-16T14:40:33;3.83;;;1.45;;
21729;SDS011;11027;51.030;13.812;2023-01-16T14:43:31;4.40;;;2.08;;
21729;SDS011;11027;51.030;13.812;2023-01-16T14:52:35;3.25;;;1.80;;
21729;SDS011;11027;51.030;13.812;2023-01-16T14:55:20;3.08;;;1.58;;
21729;SDS011;11027;51.030;13.812;2023-01-16T14:57:48;5.55;;;1.38;;
21729;SDS011;11027;51.030;13.812;2023-01-16T15:00:14;4.22;;;1.50;;
21729;SDS011;11027;51.030;13.812;2023-01-16T15:02:52;5.63;;;1.77;;
21729;SDS011;11027;51.030;13.812;2023-01-16T15:05:32;2.83;;;1.50;;
21729;SDS011;11027;51.030;13.812;2023-01-16T15:08:15;4.82;;;1.77;;
21729;SDS011;11027;51.030;13.812;2023-01-16T15:10:45;4.03;;;1.27;;
21729;SDS011;11027;51.030;13.812;2023-01-16T15:15:47;6.18;;;1.77;;
21729;SDS011;11027;51.030;13.812;2023-01-16T15:18:16;4.38;;;1.67;;
21729;SDS011;11027;51.030;13.812;2023-01-16T15:21:01;3.13;;;1.70;;
21729;SDS011;11027;51.030;13.812;2023-01-16T15:23:55;2.53;;;1.65;;
21729;SDS011;11027;51.030;13.812;2023-01-16T15:29:25;4.30;;;1.77;;
21729;SDS011;11027;51.030;13.812;2023-01-16T15:32:27;4.82;;;1.70;;
21729;SDS011;11027;51.030;13.812;2023-01-16T15:35:13;6.20;;;1.67;;
21729;SDS011;11027;51.030;13.812;2023-01-16T15:37:47;4.80;;;1.90;;
21729;SDS011;11027;51.030;13.812;2023-01-16T15:40:24;3.92;;;1.65;;
21729;SDS011;11027;51.030;13.812;2023-01-16T15:42:52;5.50;;;2.17;;
21729;SDS011;11027;51.030;13.812;2023-01-16T15:45:36;4.82;;;1.42;;
21729;SDS011;11027;51.030;13.812;2023-01-16T15:51:24;4.45;;;1.63;;
21729;SDS011;11027;51.030;13.812;2023-01-16T15:53:50;5.22;;;1.55;;
21729;SDS011;11027;51.030;13.812;2023-01-16T15:56:38;4.78;;;1.85;;
21729;SDS011;11027;51.030;13.812;2023-01-16T15:59:23;4.03;;;1.85;;
21729;SDS011;11027;51.030;13.812;2023-01-16T16:01:49;4.30;;;1.90;;
21729;SDS011;11027;51.030;13.812;2023-01-16T16:04:14;5.45;;;2.08;;
21729;SDS011;11027;51.030;13.812;2023-01-16T16:06:40;9.30;;;2.40;;
21729;SDS011;11027;51.030;13.812;2023-01-16T16:09:10;5.03;;;2.05;;
21729;SDS011;11027;51.030;13.812;2023-01-16T16:11:42;7.35;;;2.00;;
21729;SDS011;11027;51.030;13.812;2023-01-16T16:14:27;4.80;;;1.88;;
21729;SDS011;11027;51.030;13.812;2023-01-16T16:17:26;6.43;;;1.83;;
21729;SDS011;11027;51.030;13.812;2023-01-16T16:23:24;5.80;;;2.05;;
21729;SDS011;11027;51.030;13.812;2023-01-16T16:25:51;5.40;;;2.40;;
21729;SDS011;11027;51.030;13.812;2023-01-16T16:28:20;3.45;;;1.90;;
21729;SDS011;11027;51.030;13.812;2023-01-16T16:36:41;6.03;;;2.50;;
21729;SDS011;11027;51.030;13.812;2023-01-16T16:41:53;4.47;;;2.35;;
21729;SDS011;11027;51.030;13.812;2023-01-16T16:44:38;4.80;;;2.10;;
21729;SDS011;11027;51.030;13.812;2023-01-16T16:47:21;6.28;;;2.20;;
21729;SDS011;11027;51.030;13.812;2023-01-16T16:49:46;4.18;;;2.25;;
21729;SDS011;11027;51.030;13.812;2023-01-16T16:55:24;5.90;;;2.42;;
21729;SDS011;11027;51.030;13.812;2023-01-16T16:57:50;4.78;;;2.50;;
21729;SDS011;11027;51.030;13.812;2023-01-16T17:00:16;5.05;;;2.40;;
21729;SDS011;11027;51.030;13.812;2023-01-16T17:02:43;5.70;;;2.70;;
21729;SDS011;11027;51.030;13.812;2023-01-16T17:05:11;4.50;;;2.20;;
21729;SDS011;11027;51.030;13.812;2023-01-16T17:07:38;4.88;;;2.40;;
21729;SDS011;11027;51.030;13.812;2023-01-16T17:10:11;6.00;;;2.50;;
21729;SDS011;11027;51.030;13.812;2023-01-16T17:12:38;5.53;;;2.20;;
21729;SDS011;11027;51.030;13.812;2023-01-16T17:15:04;3.70;;;2.47;;